Time;durP1;ratioP1;P1;durP2;ratioP2;P2;SDS_P1;SDS_P2;PMS_P1;PMS_P2;Temp;Humidity;BMP_temperature;BMP_pressure;BME280_temperature;BME280_humidity;BME280_pressure;Samples;Min_cycle;Max_cycle;Signal;HPM_P1;HPM_P2
2022/01/30 00:01:36;;;;;;;45.20;7.38;;;;;;;5.82;100.00;101116.88;10023574;29;20054;-67
2022/01/30 00:06:33;;;;;;;21.77;5.15;;;;;;;5.51;100.00;101148.69;10042338;28;20048;-67
2022/01/30 00:11:33;;;;;;;34.45;5.00;;;;;;;5.42;100.00;101140.28;10039047;29;20075;-67
2022/01/30 00:16:34;;;;;;;37.38;6.10;;;;;;;5.47;100.00;101127.53;10023908;28;20144;-66
2022/01/30 00:21:36;;;;;;;28.70;4.75;;;;;;;5.40;100.00;101172.28;10025219;29;20052;-67
2022/01/30 00:26:35;;;;;;;30.88;5.80;;;;;;;5.41;100.00;101187.47;10034813;28;20048;-67
2022/01/30 00:31:33;;;;;;;37.13;5.93;;;;;;;5.40;100.00;101158.72;10037218;29;20074;-67
2022/01/30 00:36:49;;;;;;;34.65;7.07;;;;;;;5.33;100.00;101159.00;10039707;28;20147;-67
2022/01/30 00:41:46;;;;;;;44.15;6.53;;;;;;;5.31;100.00;101149.50;10030880;29;20043;-66
2022/01/30 00:46:44;;;;;;;39.88;7.03;;;;;;;5.20;100.00;101165.78;10041207;28;20375;-68
2022/01/30 00:51:41;;;;;;;22.75;4.03;;;;;;;4.57;100.00;101178.66;10036236;29;20052;-67
2022/01/30 00:56:37;;;;;;;31.75;6.65;;;;;;;4.46;100.00;101187.84;10040871;28;20055;-67
2022/01/30 01:01:34;;;;;;;25.98;5.60;;;;;;;4.52;100.00;101170.53;10017579;29;20558;-68
2022/01/30 01:06:31;;;;;;;37.33;5.97;;;;;;;4.55;100.00;101186.25;10032476;28;20047;-67
2022/01/30 01:27:13;;;;;;;22.00;4.43;;;;;;;4.34;100.00;101186.19;10027085;28;20082;-67
2022/01/30 01:32:10;;;;;;;31.67;5.05;;;;;;;4.41;100.00;101208.41;10030947;29;20062;-67
2022/01/30 01:37:09;;;;;;;31.63;4.80;;;;;;;4.50;100.00;101161.84;10049945;28;20086;-66
2022/01/30 01:42:11;;;;;;;25.25;4.93;;;;;;;4.56;100.00;101180.56;10034428;28;20458;-67
2022/01/30 01:47:11;;;;;;;33.60;5.20;;;;;;;4.70;100.00;101194.41;10043788;28;20653;-67
2022/01/30 01:52:23;;;;;;;29.75;4.18;;;;;;;4.79;100.00;101159.50;10035112;28;20056;-66
2022/01/30 01:57:21;;;;;;;43.15;6.93;;;;;;;4.85;100.00;101159.25;10042331;28;20087;-66
2022/01/30 02:02:18;;;;;;;22.00;4.20;;;;;;;4.89;100.00;101188.50;10035462;28;20051;-66
2022/01/30 02:07:43;;;;;;;24.85;5.72;;;;;;;4.88;100.00;101178.75;10039137;28;20087;-67
2022/01/30 02:12:40;;;;;;;36.45;7.85;;;;;;;4.92;100.00;101193.38;10007419;29;20142;-68
2022/01/30 02:28:14;;;;;;;32.42;5.00;;;;;;;4.80;100.00;101194.47;10035900;29;20135;-67
2022/01/30 02:33:11;;;;;;;44.30;7.68;;;;;;;4.70;100.00;101226.13;10034898;29;20130;-66
2022/01/30 02:38:08;;;;;;;40.42;6.60;;;;;;;4.64;100.00;101185.47;10045045;28;20423;-67
2022/01/30 02:43:05;;;;;;;38.85;7.38;;;;;;;4.62;100.00;101197.66;10041650;29;20498;-67
2022/01/30 02:53:08;;;;;;;30.58;5.20;;;;;;;4.68;100.00;101179.53;10037495;29;20131;-67
2022/01/30 02:58:04;;;;;;;24.70;4.43;;;;;;;4.79;100.00;101183.88;10048959;28;20131;-66
2022/01/30 03:03:01;;;;;;;30.20;5.43;;;;;;;4.85;100.00;101170.09;10004315;29;20071;-67
2022/01/30 03:07:57;;;;;;;29.08;4.25;;;;;;;4.85;100.00;101189.06;10047572;28;20043;-67
2022/01/30 03:12:54;;;;;;;22.77;4.82;;;;;;;4.90;100.00;101214.50;10039790;29;20052;-67
2022/01/30 03:17:50;;;;;;;32.15;6.03;;;;;;;4.96;100.00;101180.94;10057235;28;20048;-67
2022/01/30 03:22:47;;;;;;;38.78;5.75;;;;;;;4.92;100.00;101177.13;10046156;28;20067;-66
2022/01/30 03:27:51;;;;;;;20.00;4.78;;;;;;;4.87;100.00;101204.22;10046327;28;20134;-67
2022/01/30 03:32:48;;;;;;;35.42;6.03;;;;;;;4.83;100.00;101176.84;10040048;29;20134;-66
2022/01/30 03:37:45;;;;;;;28.60;4.15;;;;;;;4.91;100.00;101208.03;10045204;28;20693;-67
2022/01/30 03:42:41;;;;;;;31.80;5.13;;;;;;;4.94;100.00;101229.16;10037511;28;20139;-67
2022/01/30 03:47:38;;;;;;;32.58;4.53;;;;;;;4.97;100.00;101258.44;10061112;28;20106;-67
2022/01/30 03:52:35;;;;;;;29.33;4.65;;;;;;;4.95;100.00;101218.06;10032040;29;20054;-67
2022/01/30 03:57:32;;;;;;;28.50;6.20;;;;;;;4.92;100.00;101223.19;10065210;28;20433;-67
2022/01/30 04:02:28;;;;;;;34.35;5.53;;;;;;;4.80;100.00;101218.84;10032027;28;20083;-66
2022/01/30 04:07:26;;;;;;;27.67;5.20;;;;;;;4.74;100.00;101211.78;10071765;28;20051;-66
2022/01/30 04:12:23;;;;;;;26.15;5.15;;;;;;;4.65;100.00;101256.72;10038479;29;20724;-66
2022/01/30 04:17:21;;;;;;;30.33;5.38;;;;;;;4.62;100.00;101251.84;10061587;28;20398;-67
2022/01/30 04:22:18;;;;;;;34.00;6.47;;;;;;;4.65;100.00;101267.53;10041466;28;20056;-67
2022/01/30 04:27:14;;;;;;;29.58;5.22;;;;;;;4.70;100.00;101258.63;10061200;28;20067;-67
2022/01/30 04:32:13;;;;;;;30.08;4.18;;;;;;;4.76;100.00;101274.63;10007368;29;20044;-67
2022/01/30 04:37:27;;;;;;;22.33;4.22;;;;;;;4.92;100.00;101326.16;10056196;28;20051;-67
2022/01/30 04:57:58;;;;;;;28.27;4.97;;;;;;;5.03;100.00;101300.72;10039452;28;20075;-67
2022/01/30 05:03:07;;;;;;;27.98;4.53;;;;;;;5.00;100.00;101333.78;10034258;29;20035;-66
2022/01/30 05:08:05;;;;;;;25.25;4.50;;;;;;;4.92;100.00;101324.28;10047148;28;20047;-66
2022/01/30 05:13:06;;;;;;;34.20;5.88;;;;;;;4.89;100.00;101342.97;10034417;28;20458;-67
2022/01/30 05:18:02;;;;;;;37.92;6.90;;;;;;;4.88;100.00;101331.31;10032170;29;20071;-66
2022/01/30 05:22:59;;;;;;;28.20;5.07;;;;;;;4.87;100.00;101323.44;10041816;29;20099;-67
2022/01/30 05:27:56;;;;;;;35.58;5.68;;;;;;;4.80;100.00;101346.19;10024505;28;20554;-67
2022/01/30 05:32:52;;;;;;;42.15;6.45;;;;;;;4.74;100.00;101309.31;10027012;29;20130;-67
2022/01/30 05:37:49;;;;;;;35.45;5.10;;;;;;;4.72;100.00;101306.03;10031777;28;20114;-67
2022/01/30 05:42:45;;;;;;;33.78;5.03;;;;;;;4.72;100.00;101349.38;10032766;29;20078;-67
2022/01/30 05:47:50;;;;;;;27.15;4.95;;;;;;;4.72;100.00;101338.53;10050693;29;20082;-67
2022/01/30 05:52:47;;;;;;;27.30;4.97;;;;;;;4.74;100.00;101341.00;10046246;28;20059;-67
2022/01/30 05:57:43;;;;;;;35.00;5.32;;;;;;;4.70;100.00;101310.09;10061315;29;20051;-66
2022/01/30 06:02:41;;;;;;;19.70;4.05;;;;;;;4.62;100.00;101330.38;10046767;28;20470;-66
2022/01/30 06:07:46;;;;;;;35.33;6.18;;;;;;;4.58;100.00;101348.22;10049185;29;20140;-67
2022/01/30 06:12:43;;;;;;;28.85;5.00;;;;;;;4.56;100.00;101380.97;10032605;29;20091;-67
2022/01/30 06:17:43;;;;;;;26.70;4.85;;;;;;;4.61;100.00;101369.38;10042183;29;20052;-67
2022/01/30 06:22:40;;;;;;;36.65;4.95;;;;;;;4.62;100.00;101381.84;10017487;29;20132;-66
2022/01/30 06:27:41;;;;;;;35.22;6.57;;;;;;;4.57;100.00;101389.91;10047585;29;20430;-66
2022/01/30 06:32:37;;;;;;;33.45;5.57;;;;;;;4.58;100.00;101429.47;10034472;28;20127;-68
2022/01/30 06:37:34;;;;;;;37.63;5.88;;;;;;;4.50;100.00;101440.78;10030822;28;20063;-67
2022/01/30 06:42:32;;;;;;;33.95;6.05;;;;;;;4.52;100.00;101419.69;10032659;28;20050;-67
2022/01/30 06:47:29;;;;;;;38.67;5.90;;;;;;;4.59;100.00;101420.25;10041946;28;20078;-67
2022/01/30 06:52:25;;;;;;;40.38;5.43;;;;;;;4.61;100.00;101445.19;10024728;29;20574;-67
2022/01/30 06:57:22;;;;;;;29.35;5.40;;;;;;;4.65;100.00;101484.25;10050748;28;20071;-67
2022/01/30 07:02:18;;;;;;;18.02;2.95;;;;;;;4.64;100.00;101485.31;10022128;29;20082;-67
2022/01/30 07:07:15;;;;;;;32.10;5.35;;;;;;;4.61;100.00;101505.59;10037588;28;20073;-67
2022/01/30 07:12:12;;;;;;;26.63;4.53;;;;;;;4.61;100.00;101491.25;10026818;29;20070;-67
2022/01/30 07:17:08;;;;;;;32.88;4.65;;;;;;;4.59;100.00;101506.94;10044055;28;20131;-66
2022/01/30 07:22:05;;;;;;;39.08;6.60;;;;;;;4.58;100.00;101505.31;10031548;28;20075;-67
2022/01/30 07:27:01;;;;;;;33.75;6.00;;;;;;;4.58;100.00;101526.97;10051740;28;20123;-67
2022/01/30 07:31:58;;;;;;;44.47;6.72;;;;;;;4.58;100.00;101521.56;10019133;29;20071;-66
2022/01/30 07:36:57;;;;;;;34.00;6.38;;;;;;;4.58;100.00;101535.13;10052917;28;20140;-67
2022/01/30 07:41:54;;;;;;;46.22;8.05;;;;;;;4.68;100.00;101548.72;10006996;29;20075;-67
2022/01/30 07:46:50;;;;;;;34.97;4.65;;;;;;;4.74;100.00;101542.28;10050173;28;20739;-67
2022/01/30 07:51:47;;;;;;;39.97;7.75;;;;;;;4.84;100.00;101553.19;10039530;29;20104;-67
2022/01/30 07:56:43;;;;;;;54.78;9.15;;;;;;;4.88;100.00;101602.28;10050477;29;20063;-67
2022/01/30 08:01:40;;;;;;;52.47;8.48;;;;;;;4.95;100.00;101607.50;10038855;29;20091;-67
2022/01/30 08:06:37;;;;;;;53.75;7.20;;;;;;;4.99;100.00;101614.00;10049592;28;20099;-68
2022/01/30 08:11:34;;;;;;;40.80;7.53;;;;;;;5.00;100.00;101604.81;10039101;29;20473;-67
2022/01/30 08:16:30;;;;;;;48.42;6.28;;;;;;;5.06;100.00;101603.81;10049643;28;20576;-67
2022/01/30 08:21:27;;;;;;;37.05;6.57;;;;;;;5.05;100.00;101615.69;10031498;28;20064;-67
2022/01/30 08:26:23;;;;;;;49.15;8.55;;;;;;;5.10;100.00;101621.16;10046420;28;20054;-67
2022/01/30 08:31:20;;;;;;;41.50;6.35;;;;;;;5.10;100.00;101632.00;10010314;29;20125;-67
2022/01/30 08:36:16;;;;;;;44.97;6.93;;;;;;;5.12;100.00;101640.69;10042799;28;20498;-68
2022/01/30 08:41:13;;;;;;;43.78;6.25;;;;;;;5.17;100.00;101651.56;10015788;28;20095;-66
2022/01/30 08:46:09;;;;;;;42.85;6.75;;;;;;;5.19;100.00;101662.19;10044836;28;20135;-66
2022/01/30 08:51:06;;;;;;;43.50;7.32;;;;;;;5.18;100.00;101672.22;10036020;29;20163;-67
2022/01/30 08:56:03;;;;;;;34.67;5.95;;;;;;;5.18;100.00;101680.34;10047710;28;20039;-65
2022/01/30 09:00:59;;;;;;;39.10;6.10;;;;;;;5.18;100.00;101699.31;10048905;28;20474;-67
2022/01/30 09:05:56;;;;;;;32.33;5.55;;;;;;;5.21;100.00;101704.22;10044370;28;20564;-67
2022/01/30 09:10:58;;;;;;;16.08;3.85;;;;;;;5.20;100.00;101718.88;10050105;28;20139;-67
2022/01/30 09:15:57;;;;;;;37.35;6.32;;;;;;;5.18;100.00;101712.88;10043627;28;20126;-65
2022/01/30 09:20:54;;;;;;;37.22;4.95;;;;;;;5.18;100.00;101726.44;10047018;28;20131;-66
2022/01/30 09:25:51;;;;;;;37.67;7.72;;;;;;;5.28;100.00;101718.38;10027621;28;20058;-67
2022/01/30 09:30:47;;;;;;;27.52;4.90;;;;;;;5.26;100.00;101727.84;10039211;28;20079;-66
2022/01/30 09:35:44;;;;;;;42.45;6.32;;;;;;;5.36;100.00;101759.66;10035575;28;20044;-66
2022/01/30 09:40:41;;;;;;;34.10;5.80;;;;;;;5.39;100.00;101740.19;10054859;28;20091;-66
2022/01/30 09:45:37;;;;;;;38.38;5.82;;;;;;;5.43;100.00;101765.69;10030861;28;20139;-67
2022/01/30 09:50:35;;;;;;;39.60;6.05;;;;;;;5.46;100.00;101803.19;10048627;28;20554;-67
2022/01/30 09:55:31;;;;;;;42.88;6.50;;;;;;;5.53;100.00;101773.13;10019819;28;20063;-66
2022/01/30 10:00:28;;;;;;;39.90;6.32;;;;;;;5.49;100.00;101780.94;10034058;28;20126;-67
2022/01/30 10:05:24;;;;;;;28.60;5.70;;;;;;;5.44;100.00;101810.75;10041891;28;20110;-67
2022/01/30 10:10:24;;;;;;;49.05;8.85;;;;;;;5.49;100.00;101802.66;10020895;29;20079;-67
2022/01/30 10:15:20;;;;;;;39.38;5.60;;;;;;;5.48;100.00;101806.44;10035399;28;20110;-67
2022/01/30 10:20:22;;;;;;;35.38;6.55;;;;;;;5.49;100.00;101832.50;10034407;28;20582;-67
2022/01/30 10:25:27;;;;;;;37.38;7.00;;;;;;;5.60;100.00;101826.09;10038894;28;20110;-67
2022/01/30 10:30:24;;;;;;;43.10;7.68;;;;;;;5.69;100.00;101829.97;10028605;29;20075;-68
2022/01/30 10:35:20;;;;;;;39.70;7.43;;;;;;;5.79;100.00;101850.13;10032384;29;20076;-66
2022/01/30 10:40:20;;;;;;;50.78;7.05;;;;;;;5.79;100.00;101836.56;10063310;29;20040;-68
2022/01/30 10:45:19;;;;;;;41.88;5.88;;;;;;;5.82;100.00;101849.63;10044574;28;20619;-68
2022/01/30 10:50:21;;;;;;;39.75;6.07;;;;;;;6.01;100.00;101869.91;10035142;28;20127;-67
2022/01/30 10:55:34;;;;;;;38.38;7.00;;;;;;;6.04;98.53;101869.38;10034355;28;20102;-67
2022/01/30 11:00:38;;;;;;;38.85;5.65;;;;;;;6.13;98.33;101860.75;10007137;29;20067;-68
2022/01/30 11:05:57;;;;;;;41.13;5.63;;;;;;;6.20;98.90;101850.50;10044494;29;20051;-67
2022/01/30 11:11:17;;;;;;;43.50;5.97;;;;;;;6.19;100.00;101870.59;10044115;28;20048;-66
2022/01/30 11:21:30;;;;;;;24.33;4.68;;;;;;;6.20;100.00;101877.66;10020888;29;20105;-67
2022/01/30 11:26:28;;;;;;;35.72;5.78;;;;;;;6.28;97.29;101882.59;10034836;29;20103;-67
2022/01/30 11:31:25;;;;;;;39.13;7.38;;;;;;;6.35;94.96;101899.50;10040527;28;20075;-67
2022/01/30 11:36:23;;;;;;;21.73;4.40;;;;;;;6.19;92.67;101892.31;10052436;28;20050;-66
2022/01/30 11:41:20;;;;;;;36.20;5.22;;;;;;;6.16;93.40;101903.69;10070179;28;20566;-67
2022/01/30 11:46:17;;;;;;;36.40;5.88;;;;;;;6.21;96.65;101923.56;10050271;28;20051;-66
2022/01/30 11:51:15;;;;;;;34.72;6.78;;;;;;;6.22;94.16;101913.50;10070925;28;20898;-67
2022/01/30 11:56:30;;;;;;;23.77;4.80;;;;;;;6.19;92.85;101919.47;10042067;28;20138;-67
2022/01/30 12:01:27;;;;;;;42.10;5.45;;;;;;;6.21;93.90;101945.28;10024154;29;20051;-67
2022/01/30 12:06:23;;;;;;;26.73;4.75;;;;;;;6.29;94.84;101914.13;10043403;28;20094;-67
2022/01/30 12:11:37;;;;;;;33.40;6.20;;;;;;;6.20;94.72;101945.56;10036845;28;20115;-67
2022/01/30 12:17:03;;;;;;;36.50;4.05;;;;;;;6.28;88.17;101951.31;10032287;28;20139;-66
2022/01/30 12:22:20;;;;;;;33.35;5.35;;;;;;;6.14;87.56;101944.69;10008413;29;20051;-67
2022/01/30 12:27:17;;;;;;;35.38;6.68;;;;;;;6.05;91.37;101930.75;10047061;28;20452;-67
2022/01/30 12:32:30;;;;;;;26.98;4.57;;;;;;;6.27;93.76;101927.16;10038037;29;20075;-66
2022/01/30 12:37:32;;;;;;;29.80;6.18;;;;;;;6.18;95.99;101924.09;10032279;28;20056;-67
2022/01/30 12:42:32;;;;;;;49.72;7.55;;;;;;;6.25;98.75;101924.69;10033334;29;20104;-66
2022/01/30 12:47:29;;;;;;;35.50;5.93;;;;;;;6.18;100.00;101909.69;10042721;28;20107;-66
2022/01/30 12:52:36;;;;;;;35.85;5.93;;;;;;;6.11;100.00;101940.59;10032838;28;20130;-66
2022/01/30 12:57:34;;;;;;;33.17;5.13;;;;;;;6.32;100.00;101929.91;10047092;28;20076;-67
2022/01/30 13:02:37;;;;;;;27.80;4.93;;;;;;;6.66;91.87;101935.88;10006043;29;20051;-67
2022/01/30 13:07:35;;;;;;;31.52;6.47;;;;;;;6.35;85.92;101940.25;10048265;28;20402;-67
2022/01/30 13:12:32;;;;;;;29.02;5.10;;;;;;;6.08;86.63;101941.13;10036865;29;20098;-67
2022/01/30 13:17:30;;;;;;;35.40;5.60;;;;;;;5.91;87.72;101940.34;10041418;29;20059;-67
2022/01/30 13:22:37;;;;;;;25.52;5.00;;;;;;;6.11;86.23;101956.88;10034694;29;20044;-66
2022/01/30 13:27:36;;;;;;;30.30;5.50;;;;;;;6.09;88.45;101942.75;10032107;28;20051;-66
2022/01/30 13:32:37;;;;;;;29.52;5.38;;;;;;;5.88;91.28;101943.59;10034786;29;20048;-67
2022/01/30 13:37:38;;;;;;;24.25;4.15;;;;;;;5.87;91.60;101945.50;10055083;28;20048;-67
2022/01/30 13:47:34;;;;;;;27.95;5.13;;;;;;;5.90;89.83;101982.97;10054950;28;20051;-66
2022/01/30 13:52:31;;;;;;;24.38;3.58;;;;;;;5.76;87.05;101991.78;10017577;29;20487;-66
2022/01/30 13:57:36;;;;;;;19.17;3.08;;;;;;;5.69;87.19;101992.78;10056843;28;20169;-67
2022/01/30 14:02:33;;;;;;;27.88;3.22;;;;;;;6.06;83.81;101997.56;9996490;29;20072;-67
2022/01/30 14:07:30;;;;;;;28.27;4.55;;;;;;;6.21;83.56;101993.34;10047403;28;20075;-67
2022/01/30 14:12:37;;;;;;;28.25;3.83;;;;;;;6.03;84.60;101992.63;10034719;29;20051;-66
2022/01/30 14:17:36;;;;;;;20.65;3.72;;;;;;;5.96;83.81;102005.59;10020790;28;20056;-65
2022/01/30 14:22:34;;;;;;;27.15;5.15;;;;;;;5.73;86.36;102008.56;10032756;29;20107;-66
2022/01/30 14:27:37;;;;;;;34.40;4.82;;;;;;;5.79;88.30;102002.13;10045293;28;20142;-66
2022/01/30 14:32:35;;;;;;;23.40;3.45;;;;;;;5.58;89.22;102023.59;10034293;29;20056;-67
2022/01/30 14:37:32;;;;;;;22.00;3.90;;;;;;;5.64;90.78;102038.88;10064883;28;20248;-67
2022/01/30 14:42:29;;;;;;;19.23;3.30;;;;;;;5.53;83.25;102020.81;10027831;28;20135;-66
2022/01/30 14:47:27;;;;;;;20.23;2.90;;;;;;;5.35;80.54;102034.69;10058049;28;20135;-67
2022/01/30 14:52:24;;;;;;;17.73;2.97;;;;;;;5.36;81.40;102020.03;10023156;28;20071;-67
2022/01/30 14:57:22;;;;;;;26.73;4.45;;;;;;;5.32;83.15;102018.91;10027374;28;20088;-67
2022/01/30 15:02:19;;;;;;;25.35;3.38;;;;;;;5.37;87.19;102021.69;10033098;29;20126;-66
2022/01/30 15:07:16;;;;;;;20.00;3.55;;;;;;;5.50;89.10;102037.59;10043771;28;20414;-67
2022/01/30 15:12:13;;;;;;;23.80;3.63;;;;;;;5.31;87.04;102038.94;10041301;29;20127;-66
2022/01/30 15:17:19;;;;;;;23.70;3.22;;;;;;;5.27;86.96;102034.03;10042899;28;20044;-67
2022/01/30 15:22:33;;;;;;;18.83;2.70;;;;;;;5.23;89.80;102029.38;10029787;29;20048;-67
2022/01/30 15:27:29;;;;;;;23.55;3.60;;;;;;;5.29;95.27;102020.22;10034914;28;20131;-67
2022/01/30 15:32:26;;;;;;;28.27;5.50;;;;;;;5.27;99.05;102016.94;10038969;29;20137;-67
2022/01/30 15:37:24;;;;;;;31.75;5.75;;;;;;;5.29;100.00;102009.34;10045010;28;20052;-66
2022/01/30 15:42:21;;;;;;;27.10;4.68;;;;;;;5.16;100.00;102007.84;10020610;29;20091;-66
2022/01/30 15:52:33;;;;;;;28.08;4.38;;;;;;;5.20;100.00;101990.00;10026642;29;20482;-67
2022/01/30 15:57:30;;;;;;;25.35;4.65;;;;;;;5.11;100.00;102007.78;10051644;28;20509;-67
2022/01/30 16:02:26;;;;;;;38.47;7.32;;;;;;;5.13;100.00;102002.09;10055191;28;20115;-67
2022/01/30 16:07:24;;;;;;;32.22;6.30;;;;;;;5.03;100.00;101989.22;10052584;28;20075;-66
2022/01/30 16:17:30;;;;;;;29.95;5.82;;;;;;;4.95;100.00;101976.91;10039658;29;20051;-67
2022/01/30 16:22:26;;;;;;;24.92;3.50;;;;;;;5.00;100.00;101984.28;10021357;29;20167;-67
2022/01/30 16:27:22;;;;;;;19.05;4.03;;;;;;;4.83;100.00;101990.56;10044832;29;20099;-67
2022/01/30 16:32:19;;;;;;;26.70;5.40;;;;;;;4.90;99.92;101984.97;10037272;29;20051;-67
2022/01/30 16:37:16;;;;;;;20.35;4.18;;;;;;;4.86;99.22;102000.09;10057406;28;20102;-68
2022/01/30 16:42:12;;;;;;;13.15;3.22;;;;;;;4.83;99.23;101990.56;10032678;28;20794;-68
2022/01/30 16:52:19;;;;;;;25.88;4.30;;;;;;;4.82;95.32;101988.91;10023762;28;20081;-68
2022/01/30 16:57:18;;;;;;;32.90;6.72;;;;;;;4.80;100.00;101991.06;10028673;28;20522;-68
2022/01/30 17:02:14;;;;;;;32.35;5.15;;;;;;;4.81;100.00;101995.41;10012826;29;20043;-68
2022/01/30 17:07:16;;;;;;;25.35;5.80;;;;;;;4.88;100.00;101991.72;10047299;28;20078;-67
2022/01/30 17:12:25;;;;;;;22.58;4.65;;;;;;;4.82;100.00;101983.50;10063442;28;20047;-68
2022/01/30 17:17:22;;;;;;;31.48;5.95;;;;;;;4.80;100.00;101980.22;10051138;28;20054;-65
2022/01/30 17:22:18;;;;;;;32.17;5.47;;;;;;;4.78;100.00;101985.06;10063253;28;20425;-66
2022/01/30 17:27:18;;;;;;;30.25;4.78;;;;;;;4.71;100.00;102000.69;10042400;28;20135;-68
2022/01/30 17:32:15;;;;;;;35.45;5.15;;;;;;;4.76;100.00;102010.78;10027418;29;20491;-66
2022/01/30 17:37:11;;;;;;;27.73;4.13;;;;;;;4.65;100.00;101988.13;10021077;28;20042;-67
2022/01/30 17:42:08;;;;;;;33.78;6.65;;;;;;;4.61;100.00;101987.78;10052906;28;20138;-67
2022/01/30 17:47:05;;;;;;;27.00;5.03;;;;;;;4.68;100.00;101984.91;10052729;28;20043;-67
2022/01/30 17:52:02;;;;;;;23.90;5.45;;;;;;;4.66;100.00;101989.75;10033930;28;20047;-67
2022/01/30 17:57:00;;;;;;;28.77;3.72;;;;;;;4.56;100.00;101995.81;10046167;28;20510;-67
2022/01/30 18:01:56;;;;;;;26.92;5.03;;;;;;;4.66;100.00;101978.91;10023357;29;20503;-66
2022/01/30 18:07:00;;;;;;;23.52;3.58;;;;;;;4.61;100.00;101976.13;10047878;28;20051;-66
2022/01/30 18:11:57;;;;;;;19.10;3.50;;;;;;;4.66;100.00;101984.31;10002563;29;20094;-67
2022/01/30 18:16:53;;;;;;;26.92;4.80;;;;;;;4.68;100.00;101978.66;10034008;29;20197;-67
2022/01/30 18:21:49;;;;;;;20.58;4.07;;;;;;;4.69;100.00;101978.44;10034857;29;20759;-66
2022/01/30 18:26:46;;;;;;;28.98;3.85;;;;;;;4.72;100.00;101983.34;10026918;28;20086;-67
2022/01/30 18:31:43;;;;;;;19.55;3.95;;;;;;;4.71;100.00;101976.31;10034749;29;20082;-68
2022/01/30 18:36:43;;;;;;;18.67;3.15;;;;;;;4.70;100.00;101979.25;10041330;28;20082;-66
2022/01/30 18:41:39;;;;;;;22.08;3.53;;;;;;;4.66;100.00;101968.06;10036924;28;20696;-67
2022/01/30 18:46:36;;;;;;;29.35;4.00;;;;;;;4.40;100.00;101964.94;10032232;28;20082;-66
2022/01/30 18:51:32;;;;;;;25.27;2.58;;;;;;;4.41;100.00;101955.78;10030882;28;20071;-67
2022/01/30 18:56:29;;;;;;;29.42;5.53;;;;;;;4.45;100.00;101949.84;10034631;28;20043;-67
2022/01/30 19:01:25;;;;;;;28.58;4.55;;;;;;;4.44;100.00;101935.50;10016754;28;20052;-67
2022/01/30 19:06:24;;;;;;;29.17;3.88;;;;;;;4.46;100.00;101919.84;10036805;28;20047;-67
2022/01/30 19:11:21;;;;;;;21.95;3.85;;;;;;;4.46;100.00;101925.25;10040642;28;20047;-67
2022/01/30 19:16:17;;;;;;;28.35;4.45;;;;;;;4.46;100.00;101909.00;10048599;28;20075;-67
2022/01/30 19:21:14;;;;;;;29.48;3.90;;;;;;;4.42;100.00;101903.25;10033745;29;20138;-67
2022/01/30 19:26:10;;;;;;;34.13;5.25;;;;;;;4.46;100.00;101900.06;10049646;28;20082;-67
2022/01/30 19:31:08;;;;;;;34.97;6.65;;;;;;;4.42;100.00;101892.41;10035246;28;20071;-69
2022/01/30 19:36:05;;;;;;;46.17;8.57;;;;;;;4.41;100.00;101890.78;10049756;28;20052;-66
2022/01/30 19:41:03;;;;;;;32.45;5.03;;;;;;;4.40;100.00;101886.41;10029573;28;20143;-67
2022/01/30 19:46:02;;;;;;;28.58;4.50;;;;;;;4.27;100.00;101884.06;10039845;29;20428;-69
2022/01/30 19:50:59;;;;;;;37.03;4.97;;;;;;;4.23;100.00;101893.75;10057720;28;20502;-68
2022/01/30 19:55:55;;;;;;;34.47;5.30;;;;;;;3.92;100.00;101887.84;10045092;28;20127;-67
2022/01/30 20:00:52;;;;;;;40.65;5.55;;;;;;;3.82;100.00;101871.41;10059284;28;20111;-67
2022/01/30 20:05:52;;;;;;;35.08;6.45;;;;;;;3.68;100.00;101870.06;10045553;28;20494;-66
2022/01/30 20:10:49;;;;;;;34.55;6.30;;;;;;;3.69;100.00;101860.88;10004813;29;20048;-66
2022/01/30 20:15:48;;;;;;;31.00;4.80;;;;;;;3.66;100.00;101853.28;10043726;28;20294;-66
2022/01/30 20:20:45;;;;;;;33.45;4.82;;;;;;;3.71;100.00;101842.53;10055309;29;20524;-66
2022/01/30 20:25:45;;;;;;;37.15;5.13;;;;;;;3.77;100.00;101831.56;10045476;28;20085;-66
2022/01/30 20:30:42;;;;;;;37.80;7.15;;;;;;;3.82;100.00;101830.81;10035491;29;20399;-67
2022/01/30 20:35:39;;;;;;;30.30;5.30;;;;;;;3.90;100.00;101818.75;10043701;28;20054;-67
2022/01/30 20:40:35;;;;;;;44.10;5.80;;;;;;;3.95;100.00;101822.38;10038851;28;20071;-66
2022/01/30 20:45:32;;;;;;;31.48;4.78;;;;;;;3.99;100.00;101812.72;10030521;29;20079;-67
2022/01/30 20:50:31;;;;;;;37.67;5.38;;;;;;;3.95;100.00;101806.16;10073647;28;20070;-67
2022/01/30 20:55:29;;;;;;;34.17;5.63;;;;;;;3.89;100.00;101804.44;10052069;28;20082;-65
2022/01/30 21:00:26;;;;;;;31.52;4.82;;;;;;;3.82;100.00;101790.25;10064733;29;20101;-66
2022/01/30 21:05:22;;;;;;;34.83;4.75;;;;;;;3.78;100.00;101797.19;10028752;28;20050;-67
2022/01/30 21:10:22;;;;;;;29.08;6.00;;;;;;;3.73;100.00;101797.13;10036570;29;20051;-67
2022/01/30 21:15:21;;;;;;;37.72;6.93;;;;;;;3.81;100.00;101794.03;10036445;28;20493;-67
2022/01/30 21:20:18;;;;;;;27.80;4.30;;;;;;;3.87;100.00;101782.19;10040580;28;20507;-67
2022/01/30 21:25:14;;;;;;;29.13;4.53;;;;;;;3.85;100.00;101768.09;10036631;28;20553;-67
2022/01/30 21:30:11;;;;;;;29.88;4.30;;;;;;;3.86;100.00;101726.47;10036626;28;20075;-67
2022/01/30 21:35:08;;;;;;;32.00;4.35;;;;;;;3.83;100.00;101729.69;10036958;29;20058;-67
2022/01/30 21:40:06;;;;;;;29.48;4.15;;;;;;;3.89;100.00;101715.13;10055194;28;20063;-67
2022/01/30 21:45:04;;;;;;;29.65;4.53;;;;;;;3.85;100.00;101705.06;10012936;28;20062;-67
2022/01/30 21:50:00;;;;;;;25.38;4.53;;;;;;;3.81;100.00;101702.03;10010472;29;20098;-66
2022/01/30 21:54:57;;;;;;;23.73;4.93;;;;;;;3.87;100.00;101695.63;10022888;29;20051;-65
2022/01/30 21:59:53;;;;;;;24.33;3.63;;;;;;;3.85;100.00;101659.88;10063431;29;20075;-66
2022/01/30 22:04:49;;;;;;;40.70;4.63;;;;;;;3.78;100.00;101654.66;10038033;28;20044;-67
2022/01/30 22:09:50;;;;;;;24.40;4.30;;;;;;;3.80;100.00;101640.88;10064756;29;20058;-66
2022/01/30 22:15:01;;;;;;;36.60;6.45;;;;;;;3.70;100.00;101624.53;10027816;28;20502;-67
2022/01/30 22:19:59;;;;;;;36.83;4.88;;;;;;;3.68;100.00;101599.59;10062257;29;20122;-67
2022/01/30 22:24:57;;;;;;;29.45;4.72;;;;;;;3.58;100.00;101601.09;10029584;28;20560;-66
2022/01/30 22:29:54;;;;;;;34.03;6.40;;;;;;;3.58;100.00;101590.28;10029226;29;20498;-68
2022/01/30 22:34:51;;;;;;;30.50;5.35;;;;;;;3.62;100.00;101573.56;10026695;28;20047;-67
2022/01/30 22:39:50;;;;;;;30.67;6.32;;;;;;;3.50;100.00;101582.59;10041305;28;20107;-67
2022/01/30 22:44:46;;;;;;;38.13;6.18;;;;;;;3.58;100.00;101573.25;10040149;28;20082;-66
2022/01/30 22:49:43;;;;;;;37.20;4.63;;;;;;;3.46;100.00;101565.25;10036275;28;20056;-67
2022/01/30 22:54:40;;;;;;;25.08;4.93;;;;;;;3.47;100.00;101534.41;10033414;28;20039;-67
2022/01/30 22:59:37;;;;;;;31.85;5.72;;;;;;;3.44;100.00;101523.31;10039589;28;20086;-67
2022/01/30 23:04:34;;;;;;;34.95;4.82;;;;;;;3.43;100.00;101510.84;10045864;29;20044;-65
2022/01/30 23:09:30;;;;;;;42.03;5.40;;;;;;;3.37;100.00;101508.06;10041798;28;20075;-67
2022/01/30 23:14:27;;;;;;;38.25;5.75;;;;;;;3.33;100.00;101489.91;10044863;29;20089;-67
2022/01/30 23:19:23;;;;;;;29.67;5.80;;;;;;;3.34;100.00;101483.41;10048753;28;20134;-66
2022/01/30 23:24:23;;;;;;;39.60;4.45;;;;;;;3.38;100.00;101466.44;10037557;29;20510;-66
2022/01/30 23:29:19;;;;;;;35.53;5.45;;;;;;;3.35;100.00;101466.16;10047022;28;20582;-65
2022/01/30 23:34:18;;;;;;;34.20;4.78;;;;;;;3.38;100.00;101452.13;10041645;29;20055;-67
2022/01/30 23:39:15;;;;;;;52.33;7.47;;;;;;;3.32;100.00;101423.41;10053358;28;20118;-66
2022/01/30 23:44:11;;;;;;;42.15;6.13;;;;;;;3.35;100.00;101412.09;10020511;29;20048;-66
2022/01/30 23:49:09;;;;;;;29.13;5.20;;;;;;;3.40;100.00;101393.22;10054916;28;20048;-67
2022/01/30 23:54:05;;;;;;;38.40;5.75;;;;;;;3.43;100.00;101387.28;10022240;28;20043;-66